createdAt,value
2022-08-24T00:00:14.571Z,31.18
2022-08-24T00:02:41.611Z,31.88
2022-08-24T00:05:14.431Z,31.54
2022-08-24T00:07:41.728Z,31.69
2022-08-24T00:10:10.516Z,32.28
2022-08-24T00:12:37.489Z,32.03
2022-08-24T00:15:05.971Z,32.55
2022-08-24T00:17:35.057Z,33.05
2022-08-24T00:20:02.661Z,33.14
2022-08-24T00:22:30.702Z,33.52
2022-08-24T00:24:57.485Z,33.54
2022-08-24T00:27:24.418Z,33.86
2022-08-24T00:29:51.105Z,33.81
2022-08-24T00:32:17.780Z,33.90
2022-08-24T00:34:45.927Z,34.45
2022-08-24T00:37:28.492Z,34.65
2022-08-24T00:39:56.013Z,34.13
2022-08-24T00:42:23.686Z,33.91
2022-08-24T00:44:50.476Z,33.38
2022-08-24T00:47:23.959Z,33.41
2022-08-24T00:49:59.695Z,33.75
2022-08-24T00:52:35.407Z,33.91
2022-08-24T00:55:12.273Z,34.34
2022-08-24T00:57:43.146Z,34.52
2022-08-24T01:00:22.037Z,35.00
2022-08-24T01:02:55.047Z,34.89
2022-08-24T01:05:21.765Z,34.87
2022-08-24T01:07:50.549Z,35.33
2022-08-24T01:10:21.317Z,35.60
2022-08-24T01:13:00.427Z,36.82
2022-08-24T01:15:30.775Z,36.63
2022-08-24T01:18:17.286Z,36.49
2022-08-24T01:20:48.776Z,35.64
2022-08-24T01:23:36.373Z,36.10
2022-08-24T01:26:05.653Z,36.24
2022-08-24T01:28:34.404Z,36.79
2022-08-24T01:31:04.237Z,37.50
2022-08-24T01:33:32.051Z,38.41
2022-08-24T01:36:09.588Z,39.29
2022-08-24T01:38:36.615Z,38.65
2022-08-24T01:41:04.731Z,39.52
2022-08-24T01:43:32.214Z,39.58
2022-08-24T01:46:06.307Z,39.78
2022-08-24T01:48:33.444Z,40.51
2022-08-24T01:51:00.171Z,41.19
2022-08-24T01:53:27.136Z,42.03
2022-08-24T01:55:54.072Z,42.99
2022-08-24T01:58:20.815Z,42.92
2022-08-24T02:00:47.762Z,42.66
2022-08-24T02:03:14.710Z,42.98
2022-08-24T02:05:44.842Z,42.70
2022-08-24T02:08:15.041Z,42.30
2022-08-24T02:10:41.864Z,41.79
2022-08-24T02:13:15.888Z,41.93
2022-08-24T02:15:42.655Z,42.77
2022-08-24T02:18:15.615Z,42.24
2022-08-24T02:20:43.512Z,41.46
2022-08-24T02:23:10.293Z,41.28
2022-08-24T02:25:37.087Z,41.84
2022-08-24T02:28:04.536Z,42.57
2022-08-24T02:30:32.079Z,42.15
2022-08-24T02:32:59.319Z,41.90
2022-08-24T02:35:29.635Z,41.78
2022-08-24T02:37:57.695Z,41.62
2022-08-24T02:40:26.095Z,41.51
2022-08-24T02:42:53.542Z,41.47
2022-08-24T02:45:21.792Z,41.27
2022-08-24T02:47:48.529Z,41.32
2022-08-24T02:50:17.726Z,41.16
2022-08-24T02:52:45.356Z,41.11
2022-08-24T02:55:15.846Z,40.66
2022-08-24T02:57:47.894Z,40.70
2022-08-24T03:00:21.313Z,40.47
2022-08-24T03:02:52.449Z,40.23
2022-08-24T03:05:20.705Z,39.61
2022-08-24T03:07:47.842Z,39.51
2022-08-24T03:10:15.211Z,39.68
2022-08-24T03:12:42.378Z,39.49
2022-08-24T03:15:11.378Z,40.78
2022-08-24T03:17:39.845Z,40.69
2022-08-24T03:20:10.965Z,41.51
2022-08-24T03:22:38.808Z,42.41
2022-08-24T03:25:06.686Z,42.77
2022-08-24T03:27:33.426Z,42.58
2022-08-24T03:30:01.191Z,42.26
2022-08-24T03:32:33.203Z,42.05
2022-08-24T03:35:01.895Z,42.01
2022-08-24T03:37:29.886Z,41.94
2022-08-24T03:39:56.623Z,41.91
2022-08-24T03:42:23.427Z,42.21
2022-08-24T03:44:50.258Z,42.38
2022-08-24T03:47:18.817Z,42.06
2022-08-24T03:49:45.854Z,41.81
2022-08-24T03:52:12.789Z,41.69
2022-08-24T03:54:40.629Z,42.32
2022-08-24T03:57:07.942Z,42.56
2022-08-24T03:59:34.858Z,42.45
2022-08-24T04:02:08.026Z,42.61
2022-08-24T04:04:36.969Z,42.41
2022-08-24T04:07:04.617Z,42.90
2022-08-24T04:09:32.457Z,43.00
2022-08-24T04:11:59.375Z,43.86
2022-08-24T04:14:27.884Z,45.51
2022-08-24T04:17:20.707Z,46.50
2022-08-24T04:20:00.436Z,47.34
2022-08-24T04:22:34.164Z,47.44
2022-08-24T04:25:01.038Z,47.68
2022-08-24T04:27:30.863Z,46.68
2022-08-24T04:29:57.664Z,46.24
2022-08-24T04:32:27.582Z,46.72
2022-08-24T04:34:56.232Z,46.77
2022-08-24T04:37:28.178Z,46.73
2022-08-24T04:39:56.868Z,46.55
2022-08-24T04:42:33.469Z,46.20
2022-08-24T04:45:00.881Z,46.74
2022-08-24T04:47:27.607Z,46.97
2022-08-24T04:49:54.449Z,46.87
2022-08-24T04:52:21.422Z,46.62
2022-08-24T04:54:48.177Z,46.32
2022-08-24T04:57:21.573Z,46.48
2022-08-24T04:59:49.134Z,46.79
2022-08-24T05:02:16.637Z,47.28
2022-08-24T05:04:46.896Z,47.75
2022-08-24T05:07:13.811Z,47.59
2022-08-24T05:09:43.363Z,47.35
2022-08-24T05:12:11.785Z,47.43
2022-08-24T05:14:44.158Z,47.87
2022-08-24T05:17:10.959Z,47.58
2022-08-24T05:19:37.823Z,47.25
2022-08-24T05:22:05.344Z,47.49
2022-08-24T05:24:32.389Z,47.81
2022-08-24T05:27:00.652Z,47.44
2022-08-24T05:29:28.180Z,47.49
2022-08-24T05:31:57.167Z,47.19
2022-08-24T05:34:24.590Z,46.85
2022-08-24T05:36:52.043Z,46.77
2022-08-24T05:39:31.038Z,46.66
2022-08-24T05:41:59.794Z,46.72
2022-08-24T05:44:31.365Z,47.46
2022-08-24T05:47:01.455Z,47.25
2022-08-24T05:49:28.829Z,46.00
2022-08-24T05:51:55.669Z,46.00
2022-08-24T05:54:23.572Z,46.19
2022-08-24T05:57:04.569Z,46.04
2022-08-24T05:59:37.785Z,45.80
2022-08-24T06:02:10.101Z,45.50
2022-08-24T06:04:38.251Z,45.30
2022-08-24T06:07:10.689Z,45.27
2022-08-24T06:09:41.632Z,45.33
2022-08-24T06:12:10.301Z,45.12
2022-08-24T06:14:37.037Z,44.64
2022-08-24T06:17:08.390Z,44.43
2022-08-24T06:19:36.139Z,43.93
2022-08-24T06:22:03.576Z,43.89
2022-08-24T06:24:49.621Z,43.29
2022-08-24T06:27:21.029Z,43.54
2022-08-24T06:29:52.224Z,42.84
2022-08-24T06:32:38.713Z,42.68
2022-08-24T06:35:07.909Z,42.58
2022-08-24T06:37:38.473Z,42.75
2022-08-24T06:40:07.507Z,42.39
2022-08-24T06:42:35.319Z,42.13
2022-08-24T06:45:03.109Z,41.90
2022-08-24T06:47:30.929Z,41.38
2022-08-24T06:50:00.484Z,41.24
2022-08-24T06:52:30.077Z,41.06
2022-08-24T06:54:57.399Z,40.31
2022-08-24T06:57:24.303Z,39.70
2022-08-24T06:59:53.075Z,39.61
2022-08-24T07:02:19.969Z,39.00
2022-08-24T07:04:47.524Z,39.16
2022-08-24T07:07:32.656Z,38.65
2022-08-24T07:10:01.055Z,38.39
2022-08-24T07:12:27.815Z,37.85
2022-08-24T07:14:55.217Z,37.27
2022-08-24T07:17:22.963Z,37.10
2022-08-24T07:19:50.168Z,37.84
2022-08-24T07:22:36.807Z,37.76
2022-08-24T07:25:04.133Z,37.84
2022-08-24T07:27:31.614Z,37.90
2022-08-24T07:30:23.077Z,38.24
2022-08-24T07:32:45.039Z,38.14
2022-08-24T07:35:11.919Z,38.08
2022-08-24T07:37:41.343Z,37.95
2022-08-24T07:40:10.057Z,37.53
2022-08-24T07:42:37.103Z,37.31
2022-08-24T07:45:04.153Z,37.39
2022-08-24T07:47:42.332Z,36.89
2022-08-24T07:50:22.871Z,36.61
2022-08-24T07:52:49.568Z,36.29
2022-08-24T07:55:16.728Z,36.04
2022-08-24T07:57:45.212Z,35.96
2022-08-24T08:00:15.973Z,35.94
2022-08-24T08:02:47.336Z,36.16
2022-08-24T08:05:19.804Z,36.06
2022-08-24T08:08:02.171Z,35.68
2022-08-24T08:10:31.008Z,35.77
2022-08-24T08:12:58.153Z,36.02
2022-08-24T08:15:26.599Z,35.78
2022-08-24T08:18:00.193Z,35.88
2022-08-24T08:20:27.053Z,35.73
2022-08-24T08:23:12.481Z,35.73
2022-08-24T08:26:16.453Z,35.59
2022-08-24T08:28:54.819Z,35.69
2022-08-24T08:31:21.593Z,35.54
2022-08-24T08:33:49.028Z,35.62
2022-08-24T08:36:17.144Z,34.88
2022-08-24T08:38:49.162Z,35.05
2022-08-24T08:41:17.749Z,34.35
2022-08-24T08:44:08.764Z,34.32
2022-08-24T08:47:00.625Z,34.32
2022-08-24T08:50:04.415Z,34.54
2022-08-24T08:53:03.201Z,33.86
2022-08-24T08:55:47.637Z,33.61
2022-08-24T08:58:18.171Z,33.09
2022-08-24T09:01:33.044Z,33.00
2022-08-24T09:04:21.648Z,33.12
2022-08-24T09:07:21.702Z,33.64
2022-08-24T09:10:12.770Z,34.04
2022-08-24T09:13:02.836Z,33.19
2022-08-24T09:15:39.953Z,34.43
2022-08-24T09:18:13.943Z,32.84
2022-08-24T09:20:49.714Z,33.30
2022-08-24T09:23:38.537Z,32.96
2022-08-24T09:26:29.234Z,33.17
2022-08-24T09:29:11.939Z,33.12
2022-08-24T09:31:43.831Z,33.11
2022-08-24T09:34:24.909Z,33.44
2022-08-24T09:37:04.796Z,32.67
2022-08-24T09:39:36.631Z,32.23
2022-08-24T09:42:30.619Z,32.32
2022-08-24T09:45:16.270Z,31.94
2022-08-24T09:48:21.042Z,32.70
2022-08-24T09:51:12.030Z,32.40
2022-08-24T09:54:00.128Z,32.38
2022-08-24T09:56:47.057Z,31.90
2022-08-24T09:59:23.299Z,31.91
2022-08-24T10:02:22.656Z,31.85
2022-08-24T10:05:14.165Z,33.66
2022-08-24T10:07:55.820Z,31.58
2022-08-24T10:11:10.594Z,31.74
2022-08-24T10:14:06.576Z,31.26
2022-08-24T10:17:07.875Z,31.01
2022-08-24T10:20:05.619Z,30.50
2022-08-24T10:22:58.289Z,31.39
2022-08-24T10:25:34.945Z,30.88
2022-08-24T10:28:27.706Z,32.18
2022-08-24T10:31:12.947Z,30.56
2022-08-24T10:34:07.069Z,30.82
2022-08-24T10:36:42.738Z,32.42
2022-08-24T10:39:43.863Z,32.01
2022-08-24T10:42:48.407Z,31.20
2022-08-24T10:45:32.055Z,29.83
2022-08-24T10:48:33.499Z,29.87
2022-08-24T10:51:36.174Z,29.29
2022-08-24T10:54:04.399Z,30.51
2022-08-24T10:57:11.592Z,29.55
2022-08-24T10:59:59.283Z,28.98
2022-08-24T11:02:37.287Z,28.62
2022-08-24T11:05:08.595Z,29.00
2022-08-24T11:07:37.563Z,28.36
2022-08-24T11:10:08.427Z,28.60
2022-08-24T11:12:41.468Z,28.61
2022-08-24T11:15:22.074Z,28.55
2022-08-24T11:17:56.698Z,28.35
2022-08-24T11:20:36.540Z,28.50
2022-08-24T11:23:07.826Z,28.48
2022-08-24T11:25:41.968Z,28.90
2022-08-24T11:28:20.597Z,28.87
2022-08-24T11:30:47.590Z,28.91
2022-08-24T11:33:49.657Z,29.75
2022-08-24T11:36:25.852Z,29.34
2022-08-24T11:39:23.678Z,29.70
2022-08-24T11:41:57.341Z,29.92
2022-08-24T11:44:49.765Z,30.01
2022-08-24T11:47:40.465Z,29.20
2022-08-24T11:50:31.200Z,30.37
2022-08-24T11:56:28.550Z,28.46
2022-08-24T11:59:26.754Z,29.36
2022-08-24T12:01:59.671Z,29.02
2022-08-24T12:04:40.622Z,28.46
2022-08-24T12:07:23.057Z,28.48
2022-08-24T12:10:22.043Z,27.87
2022-08-24T12:12:58.591Z,27.89
2022-08-24T12:15:57.192Z,29.87
2022-08-24T12:18:39.312Z,27.69
2022-08-24T12:21:12.565Z,27.54
2022-08-24T12:23:43.657Z,29.33
2022-08-24T12:26:17.185Z,26.51
2022-08-24T12:28:54.195Z,27.54
2022-08-24T12:31:45.731Z,26.90
2022-08-24T12:34:29.964Z,27.24
2022-08-24T12:37:16.400Z,26.59
2022-08-24T12:40:08.856Z,26.82
2022-08-24T12:42:49.882Z,25.95
2022-08-24T12:45:20.854Z,25.97
2022-08-24T12:48:14.746Z,26.15
2022-08-24T12:51:26.893Z,25.53
2022-08-24T12:54:18.208Z,25.38
2022-08-24T12:57:07.819Z,25.30
2022-08-24T12:59:45.315Z,25.61
2022-08-24T13:02:15.163Z,25.13
2022-08-24T13:04:51.174Z,24.98
2022-08-24T13:07:23.992Z,24.78
2022-08-24T13:09:56.771Z,23.93
2022-08-24T13:12:41.281Z,24.85
2022-08-24T13:15:23.506Z,24.07
2022-08-24T13:18:20.170Z,24.86
2022-08-24T13:20:49.949Z,23.95
2022-08-24T13:23:20.700Z,23.99
2022-08-24T13:25:47.312Z,23.70
2022-08-24T13:28:20.277Z,23.34
2022-08-24T13:30:53.516Z,23.22
2022-08-24T13:33:43.542Z,23.23
2022-08-24T13:36:29.132Z,23.37
2022-08-24T13:39:17.497Z,23.82
2022-08-24T13:42:14.276Z,22.57
2022-08-24T13:45:01.332Z,23.57
2022-08-24T13:47:52.107Z,22.64
2022-08-24T13:50:43.815Z,23.09
2022-08-24T13:53:35.143Z,22.93
2022-08-24T13:56:31.007Z,23.04
2022-08-24T13:59:31.009Z,23.19
2022-08-24T14:02:21.091Z,22.58
2022-08-24T14:05:29.607Z,22.30
2022-08-24T14:08:27.417Z,22.35
2022-08-24T14:11:14.596Z,22.65
2022-08-24T14:14:03.287Z,25.40
2022-08-24T14:17:24.140Z,21.68
2022-08-24T14:20:22.255Z,21.96
2022-08-24T14:22:51.974Z,21.29
2022-08-24T14:25:23.198Z,21.78
2022-08-24T14:27:58.912Z,21.70
2022-08-24T14:30:25.688Z,21.78
2022-08-24T14:32:59.647Z,21.41
2022-08-24T14:35:34.344Z,21.05
2022-08-24T14:38:53.632Z,21.05
2022-08-24T14:41:52.228Z,20.51
2022-08-24T14:44:48.600Z,20.61
2022-08-24T14:47:33.594Z,20.03
2022-08-24T14:50:38.230Z,19.65
2022-08-24T14:53:18.820Z,19.33
2022-08-24T14:56:06.035Z,18.72
2022-08-24T14:59:01.956Z,18.05
2022-08-24T15:01:39.279Z,16.91
2022-08-24T15:04:37.444Z,16.48
2022-08-24T15:07:23.171Z,15.90
2022-08-24T15:09:51.819Z,15.30
2022-08-24T15:12:58.061Z,14.34
2022-08-24T15:15:49.857Z,13.46
2022-08-24T15:18:37.038Z,13.87
2022-08-24T15:21:16.521Z,13.35
2022-08-24T15:24:28.345Z,13.62
2022-08-24T15:27:27.311Z,14.53
2022-08-24T15:29:58.300Z,16.45
2022-08-24T15:32:43.597Z,17.65
2022-08-24T15:35:27.100Z,19.10
2022-08-24T15:37:54.692Z,19.93
2022-08-24T15:40:31.666Z,20.38
2022-08-24T15:43:03.854Z,20.42
2022-08-24T15:45:32.238Z,20.34
2022-08-24T15:48:01.037Z,20.69
2022-08-24T15:50:34.899Z,20.83
2022-08-24T15:53:07.251Z,20.56
2022-08-24T15:55:46.471Z,21.08
2022-08-24T15:58:34.803Z,21.92
2022-08-24T16:01:38.091Z,22.76
2022-08-24T16:04:46.429Z,22.08
2022-08-24T16:07:25.506Z,22.33
2022-08-24T16:10:08.832Z,22.50
2022-08-24T16:12:36.397Z,22.02
2022-08-24T16:15:17.332Z,22.20
2022-08-24T16:17:51.462Z,22.04
2022-08-24T16:20:24.593Z,21.96
2022-08-24T16:23:00.773Z,21.98
2022-08-24T16:25:31.618Z,22.50
2022-08-24T16:28:07.717Z,22.66
2022-08-24T16:30:43.142Z,22.12
2022-08-24T16:33:30.723Z,22.06
2022-08-24T16:36:03.267Z,22.40
2022-08-24T16:38:32.382Z,22.28
2022-08-24T16:41:02.107Z,22.79
2022-08-24T16:43:29.747Z,22.80
2022-08-24T16:45:57.984Z,22.14
2022-08-24T16:48:24.696Z,22.35
2022-08-24T16:50:51.377Z,22.71
2022-08-24T16:53:18.149Z,22.69
2022-08-24T16:55:45.023Z,22.43
2022-08-24T16:58:11.981Z,22.25
2022-08-24T17:00:38.739Z,22.05
2022-08-24T17:03:05.612Z,22.25
2022-08-24T17:05:33.072Z,22.28
2022-08-24T17:08:01.754Z,22.24
2022-08-24T17:10:28.431Z,22.09
2022-08-24T17:12:55.306Z,22.53
2022-08-24T17:15:23.529Z,21.96
2022-08-24T17:17:58.502Z,22.05
2022-08-24T17:20:25.922Z,22.40
2022-08-24T17:22:52.877Z,22.54
2022-08-24T17:25:19.719Z,22.69
2022-08-24T17:27:47.565Z,23.11
2022-08-24T17:30:18.457Z,23.36
2022-08-24T17:32:45.229Z,23.35
2022-08-24T17:35:12.824Z,23.60
2022-08-24T17:37:39.798Z,23.06
2022-08-24T17:40:10.556Z,23.00
2022-08-24T17:42:50.995Z,22.42
2022-08-24T17:45:19.104Z,22.66
2022-08-24T17:47:46.318Z,22.24
2022-08-24T17:50:14.791Z,22.43
2022-08-24T17:52:42.518Z,22.43
2022-08-24T17:55:11.775Z,22.24
2022-08-24T17:57:39.486Z,22.59
2022-08-24T18:00:09.993Z,22.47
2022-08-24T18:02:40.204Z,22.29
2022-08-24T18:05:08.476Z,22.67
2022-08-24T18:07:52.524Z,22.77
2022-08-24T18:10:23.859Z,23.10
2022-08-24T18:12:50.791Z,23.22
2022-08-24T18:15:18.022Z,23.56
2022-08-24T18:17:48.508Z,23.67
2022-08-24T18:20:25.859Z,24.19
2022-08-24T18:22:53.827Z,24.22
2022-08-24T18:25:23.116Z,24.06
2022-08-24T18:27:53.274Z,24.53
2022-08-24T18:30:30.408Z,24.80
2022-08-24T18:32:59.867Z,24.91
2022-08-24T18:35:26.648Z,24.94
2022-08-24T18:37:53.253Z,25.37
2022-08-24T18:40:21.674Z,25.63
2022-08-24T18:42:50.936Z,25.34
2022-08-24T18:45:18.400Z,26.12
2022-08-24T18:47:45.411Z,26.04
2022-08-24T18:50:21.095Z,25.71
2022-08-24T18:52:48.043Z,26.26
2022-08-24T18:55:15.277Z,26.46
2022-08-24T18:57:42.127Z,26.34
2022-08-24T19:00:10.415Z,26.60
2022-08-24T19:02:38.008Z,26.33
2022-08-24T19:05:11.350Z,26.70
2022-08-24T19:07:41.565Z,26.19
2022-08-24T19:10:10.092Z,26.59
2022-08-24T19:12:42.557Z,26.59
2022-08-24T19:15:29.408Z,26.66
2022-08-24T19:18:03.134Z,26.53
2022-08-24T19:20:32.596Z,26.31
2022-08-24T19:23:07.134Z,26.75
2022-08-24T19:25:35.300Z,26.39
2022-08-24T19:28:02.557Z,26.70
2022-08-24T19:30:29.306Z,26.45
2022-08-24T19:32:57.623Z,26.98
2022-08-24T19:35:24.279Z,26.82
2022-08-24T19:37:51.013Z,27.04
2022-08-24T19:40:20.736Z,26.94
2022-08-24T19:42:50.765Z,26.67
2022-08-24T19:45:40.690Z,26.70
2022-08-24T19:48:07.453Z,26.61
2022-08-24T19:50:35.965Z,26.89
2022-08-24T19:53:04.783Z,26.88
2022-08-24T19:55:32.750Z,27.03
2022-08-24T19:58:20.491Z,27.02
2022-08-24T20:00:57.653Z,26.92
2022-08-24T20:03:24.986Z,27.15
2022-08-24T20:05:51.820Z,27.24
2022-08-24T20:08:21.734Z,27.69
2022-08-24T20:10:49.659Z,27.70
2022-08-24T20:13:16.954Z,27.51
2022-08-24T20:15:43.678Z,27.46
2022-08-24T20:18:10.716Z,27.56
2022-08-24T20:20:37.735Z,27.50
2022-08-24T20:23:06.418Z,27.54
2022-08-24T20:25:36.188Z,27.54
2022-08-24T20:28:28.291Z,27.79
2022-08-24T20:30:52.235Z,27.77
2022-08-24T20:33:21.128Z,27.89
2022-08-24T20:35:47.915Z,27.91
2022-08-24T20:38:18.160Z,27.80
2022-08-24T20:40:45.955Z,27.71
2022-08-24T20:43:12.961Z,27.91
2022-08-24T20:45:41.623Z,28.19
2022-08-24T20:48:12.049Z,28.26
2022-08-24T20:50:43.098Z,28.53
2022-08-24T20:53:11.334Z,28.69
2022-08-24T20:55:39.715Z,28.58
2022-08-24T20:58:06.759Z,28.78
2022-08-24T21:00:34.301Z,29.21
2022-08-24T21:03:01.082Z,29.08
2022-08-24T21:05:28.093Z,28.70
2022-08-24T21:07:57.649Z,29.14
2022-08-24T21:10:26.465Z,29.51
2022-08-24T21:12:54.296Z,29.53
2022-08-24T21:15:22.378Z,29.69
2022-08-24T21:17:50.260Z,29.58
2022-08-24T21:20:18.276Z,29.26
2022-08-24T21:22:46.064Z,29.85
2022-08-24T21:25:14.577Z,29.91
2022-08-24T21:27:44.104Z,29.83
2022-08-24T21:30:14.630Z,29.93
2022-08-24T21:33:00.053Z,30.00
2022-08-24T21:35:27.322Z,30.48
2022-08-24T21:37:54.135Z,30.52
2022-08-24T21:40:21.806Z,30.71
2022-08-24T21:42:48.866Z,30.75
2022-08-24T21:45:16.110Z,30.91
2022-08-24T21:47:42.947Z,31.14
2022-08-24T21:50:09.944Z,31.21
2022-08-24T21:52:37.196Z,31.39
2022-08-24T21:55:05.553Z,31.46
2022-08-24T21:57:32.237Z,31.54
2022-08-24T21:59:59.143Z,31.70
2022-08-24T22:02:26.085Z,31.65
2022-08-24T22:04:56.884Z,31.75
2022-08-24T22:07:24.471Z,31.78
2022-08-24T22:09:51.296Z,32.24
2022-08-24T22:12:18.459Z,32.39
2022-08-24T22:14:45.181Z,32.48
2022-08-24T22:17:11.908Z,32.72
2022-08-24T22:19:39.167Z,32.87
2022-08-24T22:22:06.159Z,33.39
2022-08-24T22:24:32.813Z,33.58
2022-08-24T22:26:59.712Z,33.71
2022-08-24T22:29:26.379Z,33.89
2022-08-24T22:31:53.065Z,34.04
2022-08-24T22:34:21.031Z,34.39
2022-08-24T22:36:49.231Z,34.61
2022-08-24T22:39:16.515Z,34.76
2022-08-24T22:41:44.287Z,34.67
2022-08-24T22:44:20.173Z,34.91
2022-08-24T22:46:51.106Z,35.29
2022-08-24T22:49:20.517Z,35.57
2022-08-24T22:51:48.030Z,35.63
2022-08-24T22:54:16.054Z,35.65
2022-08-24T22:56:45.821Z,35.44
2022-08-24T22:59:18.920Z,35.36
2022-08-24T23:01:48.712Z,35.67
2022-08-24T23:04:19.517Z,35.69
2022-08-24T23:06:46.586Z,35.38
2022-08-24T23:09:13.562Z,35.83
2022-08-24T23:11:40.321Z,35.77
2022-08-24T23:14:09.027Z,35.79
2022-08-24T23:16:38.964Z,36.33
2022-08-24T23:19:26.681Z,36.27
2022-08-24T23:21:53.886Z,36.27
2022-08-24T23:24:21.731Z,36.54
2022-08-24T23:26:48.747Z,36.50
2022-08-24T23:29:16.595Z,36.81
2022-08-24T23:31:44.270Z,36.66
2022-08-24T23:34:11.201Z,37.06
2022-08-24T23:36:39.176Z,37.27
2022-08-24T23:39:08.269Z,37.37
2022-08-24T23:41:38.820Z,37.36
2022-08-24T23:52:43.332Z,37.70
2022-08-24T23:55:19.996Z,37.60
2022-08-24T23:57:47.443Z,37.72
